• Join FlightAware (Why Join?)
  • Login
  • US Flag 
07:48AM EDT


 

Airport Tracker/Info


-or-


 

Live Flight TrackerFlight Track Log ✈ DAL1515 ✈ 05-Jul-2013 ✈ KATL - KALB

Flight Track Log - Related Links

Times and Time Zones

All times are in EDT time to prevent confusion due to time zone crossing. See the DAL1515 flight status page for this flight to view local times or setup timezone preferences in your user account.

Time Position Orientation Groundspeed Altitude Reporting Facility
EDT Latitude Longitude Course Direction KTS MPH feet Rate Location/Type
08:49PM 33.6500 -84.3667 North 189 217 2,900  Level Atlanta TRACON
08:50PM 33.6667 -84.2833 76° East 253 291 5,100 2,640 Climbing Atlanta TRACON
08:51PM 33.8543 -84.1876 320° Northwest  Level FlightAware Approximate
08:51PM 33.7000 -84.2000 64° Northeast 301 346 8,200  Level Atlanta TRACON
08:52PM 33.9610 -84.2667 North  Level FlightAware Approximate
08:52PM 33.8547 -84.2189 354° North 317 365 10,000  Level Atlanta Center
08:53PM 34.0914 -84.2667 North  Level FlightAware Approximate
08:53PM 33.9528 -84.2342 353° North 341 392 10,900  Level Atlanta Center
08:54PM 34.2218 -84.2667 North  Level FlightAware Approximate
08:54PM 34.0528 -84.2494 353° North 350 403 13,600  Level Atlanta Center
08:55PM 34.1572 -84.2597 355° North 357 411 15,900 2,220 Climbing Atlanta Center
08:56PM 34.2636 -84.2372 10° North 375 432 18,100 1,980 Climbing Atlanta Center
08:57PM 34.3764 -84.2150 North 395 455 19,900 1,440 Climbing Atlanta Center
08:58PM 34.4956 -84.1900 10° North 410 472 21,000 1,500 Climbing Atlanta Center
08:59PM 34.6164 -84.1625 11° North 425 489 23,000 1,740 Climbing Atlanta Center
09:00PM 34.7333 -84.1400 North 430 495 24,500 1,200 Climbing Atlanta Center
09:01PM 34.8628 -84.1172 North 436 502 25,400 1,200 Climbing Atlanta Center
09:02PM 34.9942 -84.0894 10° North 454 522 26,900 1,380 Climbing Atlanta Center
09:03PM 35.1278 -84.0617 10° North 478 550 28,200 1,440 Climbing Atlanta Center
09:04PM 35.2614 -84.0311 11° North 484 557 29,800 1,320 Climbing Atlanta Center
09:05PM 35.3969 -84.0031 10° North 489 563 30,900 1,200 Climbing Atlanta Center
09:06PM 35.5200 -83.9750 11° North 489 563 32,300 1,260 Climbing Atlanta Center
09:07PM 35.6536 -83.9467 10° North 489 563 33,500 1,020 Climbing Atlanta Center
09:08PM 35.7869 -83.9183 10° North 489 563 34,400 720 Climbing Atlanta Center
09:09PM 35.9183 -83.8822 13° North 484 557 35,000 300 Climbing Atlanta Center
09:10PM 36.0372 -83.8103 26° Northeast 477 549 35,000  Level Atlanta Center
09:11PM 36.1378 -83.7453 28° Northeast 487 560 35,000  Level Indianapolis Center
09:12PM 36.2614 -83.6656 27° Northeast 499 574 35,000  Level Indianapolis Center
09:13PM 36.3858 -83.5867 27° Northeast 502 578 35,000  Level Indianapolis Center
09:14PM 36.5136 -83.5042 27° Northeast 504 580 35,000  Level Indianapolis Center
09:15PM 36.6381 -83.4225 28° Northeast 503 579 35,000  Level Indianapolis Center
09:16PM 36.7492 -83.3186 37° Northeast 494 568 35,000  Level Indianapolis Center
09:17PM 36.8608 -83.2142 37° Northeast 495 570 35,000  Level Indianapolis Center
09:18PM 36.9744 -83.1097 36° Northeast 498 573 35,000  Level Indianapolis Center
09:19PM 37.0886 -83.0017 37° Northeast 503 579 35,000  Level Indianapolis Center
09:20PM 37.2011 -82.8933 37° Northeast 502 578 35,000  Level Indianapolis Center
09:21PM 37.3114 -82.7869 37° Northeast 498 573 35,000  Level Indianapolis Center
09:22PM 37.4414 -82.6622 37° Northeast 503 579 35,000  Level Indianapolis Center
09:23PM 37.5519 -82.5561 37° Northeast 499 574 35,000  Level Indianapolis Center
09:24PM 37.6625 -82.4472 38° Northeast 501 577 35,000  Level Indianapolis Center
09:25PM 37.7733 -82.3419 37° Northeast 497 572 35,000  Level Indianapolis Center
09:26PM 37.8842 -82.2342 37° Northeast 499 574 35,000  Level Indianapolis Center
09:27PM 37.9975 -82.1236 38° Northeast 499 574 35,000  Level Indianapolis Center
09:28PM 38.1086 -82.0133 38° Northeast 504 580 35,000  Level Indianapolis Center
09:30PM 38.2172 -81.9047 38° Northeast 499 574 35,000  Level Indianapolis Center
09:31PM 38.3264 -81.7953 38° Northeast 499 574 35,000  Level Indianapolis Center
09:32PM 38.4236 -81.6697 45° Northeast 500 575 35,000  Level Indianapolis Center
09:33PM 38.5131 -81.5397 49° Northeast 495 570 35,000  Level Indianapolis Center
09:34PM 38.6036 -81.4081 49° Northeast 505 581 35,000  Level Indianapolis Center
09:35PM 38.6928 -81.2792 48° Northeast 494 568 35,000  Level Indianapolis Center
09:36PM 38.8019 -81.1219 48° Northeast 494 568 35,000  Level Indianapolis Center
09:37PM 38.8939 -80.9894 48° Northeast 497 572 35,000  Level Indianapolis Center
09:38PM 38.9856 -80.8556 49° Northeast 501 577 35,000  Level Indianapolis Center
09:39PM 39.0775 -80.7239 48° Northeast 496 571 35,000  Level Indianapolis Center
09:40PM 39.1711 -80.5953 47° Northeast 494 568 35,000  Level Indianapolis Center
09:41PM 39.2650 -80.4642 47° Northeast 497 572 35,000  Level Indianapolis Center
09:42PM 39.3569 -80.3336 48° Northeast 493 567 35,000 -360 Level Indianapolis Center
09:42PM 39.4247 -80.2392 47° Northeast 490 564 34,400 -1,200 Descending Cleveland Center
09:43PM 39.5283 -80.0933 47° Northeast 490 564 33,000 -720 Descending Cleveland Center
09:44PM 39.6194 -79.9606 48° Northeast 490 564 33,000  Level Cleveland Center
09:45PM 39.7103 -79.8275 48° Northeast 490 564 33,000 -540 Level Cleveland Center
09:46PM 39.8011 -79.6914 49° Northeast 490 564 32,000 -1,020 Descending Cleveland Center
09:47PM 39.8917 -79.5575 49° Northeast 490 564 31,000 -540 Descending Cleveland Center
09:48PM 39.9819 -79.4208 49° Northeast 490 564 31,000  Level Cleveland Center
09:49PM 40.0642 -79.3000 48° Northeast 490 564 31,000  Level Cleveland Center
09:50PM 40.1542 -79.1625 49° Northeast 490 564 31,000  Level Cleveland Center
09:51PM 40.2461 -79.0217 49° Northeast 495 570 31,000  Level Cleveland Center
09:52PM 40.3361 -78.8861 49° Northeast 495 570 31,000  Level Cleveland Center
09:53PM 40.4400 -78.7336 48° Northeast 495 570 31,000  Level Cleveland Center
09:54PM 40.5294 -78.5944 50° Northeast 495 570 31,000  Level Cleveland Center
09:55PM 40.6186 -78.4550 50° Northeast 495 570 31,000  Level Cleveland Center
09:58PM 40.8050 -78.1711 49° Northeast 481 554 31,000  Level New York Center
09:59PM 40.9044 -78.0144 50° Northeast 499 574 31,000 -660 Level New York Center
10:00PM 40.9961 -77.8783 48° Northeast 499 574 29,700 -1,020 Descending New York Center
10:01PM 41.0894 -77.7422 48° Northeast 499 574 29,000 -360 Descending New York Center
10:02PM 41.1831 -77.6028 48° Northeast 499 574 29,000  Level New York Center
10:03PM 41.2783 -77.4661 47° Northeast 499 574 29,000  Level New York Center
10:04PM 41.3497 -77.3100 59° Northeast 499 574 29,000  Level New York Center
10:05PM 41.4128 -77.1472 63° Northeast 493 567 29,000  Level New York Center
10:06PM 41.4614 -77.0164 64° Northeast 493 567 29,000  Level New York Center
10:07PM 41.5272 -76.8283 65° Northeast 498 573 29,000  Level New York Center
10:08PM 41.5928 -76.6431 65° Northeast 498 573 29,000 -240 Level New York Center
10:09PM 41.6608 -76.4850 60° Northeast 493 567 28,600 -1,200 Descending New York Center
10:11PM 41.8414 -76.2136 48° Northeast 489 563 25,500 -1,500 Descending Boston Center
10:12PM 41.9358 -76.0686 49° Northeast 478 550 24,100 -780 Descending Boston Center
10:13PM 42.0211 -75.9392 48° Northeast 468 539 24,000 -60 Descending Boston Center
10:14PM 42.1044 -75.8067 50° Northeast 460 529 24,000  Level Boston Center
10:15PM 42.1897 -75.6739 49° Northeast 465 535 24,000  Level Boston Center
10:16PM 42.2747 -75.5408 49° Northeast 465 535 24,000  Level Boston Center
10:17PM 42.3325 -75.4089 59° Northeast 465 535 24,000 -960 Level Boston Center
10:18PM 42.3781 -75.2481 69° East 454 522 22,100 -2,280 Descending Boston Center
10:19PM 42.4217 -75.0894 70° East 449 517 19,500 -2,460 Descending Boston Center
10:20PM 42.4606 -74.9364 71° East 444 511 17,200 -2,520 Descending Boston Center
10:20PM 42.4836 -74.8361 73° East 432 497 15,700 -2,460 Descending Boston Center
10:21PM 42.5242 -74.6883 70° East 407 468 13,400 -2,160 Descending Boston Center
10:22PM 42.5600 -74.5486 71° East 390 449 11,400 -1,440 Descending Boston Center
10:23PM 42.5853 -74.4225 75° East 350 403 10,500 -960 Descending Boston Center
10:24PM 42.5811 -74.3011 93° East 310 357 9,500 -1,620 Descending Boston Center
10:25PM 42.5767 -74.1769 93° East 304 350 7,300 -2,040 Descending Boston Center
10:26PM 42.5700 -74.0667 95° East 287 330 5,400 -1,680 Descending Boston Center
10:27PM 42.5631 -73.9708 96° East 247 284 4,000 -1,260 Descending Boston Center
10:28PM 42.5831 -73.8753 74° East 227 261 2,800 -1,140 Descending Boston Center